createdAt,value
2019-02-18T00:01:00.621Z,25.07
2019-02-18T00:03:28.637Z,25.20
2019-02-18T00:05:56.638Z,25.73
2019-02-18T00:08:24.641Z,25.43
2019-02-18T00:10:52.685Z,26.37
2019-02-18T00:13:20.674Z,25.90
2019-02-18T00:15:48.820Z,26.37
2019-02-18T00:18:16.874Z,25.73
2019-02-18T00:20:44.819Z,25.40
2019-02-18T00:23:12.781Z,25.70
2019-02-18T00:25:40.836Z,26.40
2019-02-18T00:28:08.771Z,25.77
2019-02-18T00:30:36.790Z,25.73
2019-02-18T00:33:04.724Z,26.60
2019-02-18T00:35:34.539Z,24.47
2019-02-18T00:38:02.494Z,24.50
2019-02-18T00:40:30.519Z,25.23
2019-02-18T00:42:58.477Z,25.53
2019-02-18T00:45:26.537Z,25.37
2019-02-18T00:47:54.455Z,23.70
2019-02-18T00:50:22.426Z,24.47
2019-02-18T00:52:50.385Z,24.93
2019-02-18T00:55:18.354Z,24.30
2019-02-18T00:57:46.373Z,25.67
2019-02-18T01:00:14.644Z,24.53
2019-02-18T01:02:42.654Z,24.87
2019-02-18T01:05:10.795Z,24.97
2019-02-18T01:07:38.778Z,25.33
2019-02-18T01:10:07.013Z,26.70
2019-02-18T01:12:35.036Z,26.50
2019-02-18T01:15:03.091Z,27.57
2019-02-18T01:17:32.859Z,26.17
2019-02-18T01:20:00.841Z,26.73
2019-02-18T01:22:28.862Z,25.67
2019-02-18T01:24:56.979Z,26.53
2019-02-18T01:27:26.547Z,27.27
2019-02-18T01:29:54.605Z,25.83
2019-02-18T01:32:22.539Z,26.07
2019-02-18T01:34:50.546Z,26.60
2019-02-18T01:37:18.547Z,26.60
2019-02-18T01:39:49.280Z,27.37
2019-02-18T01:42:17.246Z,26.37
2019-02-18T01:44:45.265Z,27.67
2019-02-18T01:47:13.236Z,27.67
2019-02-18T01:49:41.204Z,28.37
2019-02-18T01:52:09.190Z,28.13
2019-02-18T01:54:38.531Z,29.57
2019-02-18T01:57:07.628Z,29.23
2019-02-18T01:59:35.610Z,28.10
2019-02-18T02:02:03.559Z,28.13
2019-02-18T02:04:31.559Z,28.03
2019-02-18T02:06:59.546Z,25.90
2019-02-18T02:09:27.523Z,28.00
2019-02-18T02:11:55.498Z,28.03
2019-02-18T02:14:24.430Z,27.47
2019-02-18T02:16:52.434Z,26.40
2019-02-18T02:19:20.421Z,27.33
2019-02-18T02:21:48.468Z,27.60
2019-02-18T02:24:16.391Z,28.30
2019-02-18T02:26:44.386Z,27.47
2019-02-18T02:29:12.345Z,27.57
2019-02-18T02:31:40.292Z,28.93
2019-02-18T02:34:08.253Z,27.53
2019-02-18T02:36:36.371Z,27.70
2019-02-18T02:39:05.234Z,27.80
2019-02-18T02:41:33.164Z,28.33
2019-02-18T02:44:01.125Z,29.63
2019-02-18T02:46:29.114Z,28.33
2019-02-18T02:48:58.278Z,28.53
2019-02-18T02:51:26.242Z,29.33
2019-02-18T02:53:54.245Z,28.60
2019-02-18T02:56:22.236Z,27.70
2019-02-18T02:58:50.240Z,27.07
2019-02-18T03:01:18.501Z,26.40
2019-02-18T03:03:46.470Z,28.20
2019-02-18T03:06:14.425Z,27.77
2019-02-18T03:08:45.432Z,26.80
2019-02-18T03:11:13.127Z,27.03
2019-02-18T03:13:41.078Z,29.27
2019-02-18T03:16:09.046Z,29.43
2019-02-18T03:18:37.072Z,28.80
2019-02-18T03:21:05.090Z,27.00
2019-02-18T03:23:34.222Z,29.33
2019-02-18T03:26:02.196Z,27.60
2019-02-18T03:29:07.768Z,27.67
2019-02-18T03:31:35.735Z,26.40
2019-02-18T03:34:14.927Z,26.47
2019-02-18T03:36:42.987Z,27.37
2019-02-18T03:39:10.984Z,26.73
2019-02-18T03:41:41.013Z,27.93
2019-02-18T03:44:08.733Z,29.33
2019-02-18T03:46:36.840Z,27.60
2019-02-18T03:49:04.896Z,26.67
2019-02-18T03:51:32.938Z,25.27
2019-02-18T03:54:02.237Z,26.03
2019-02-18T03:56:30.295Z,26.57
2019-02-18T03:58:59.401Z,27.83
2019-02-18T04:01:28.341Z,28.03
2019-02-18T04:03:57.641Z,27.87
2019-02-18T04:06:26.764Z,28.17
2019-02-18T04:08:54.784Z,28.80
2019-02-18T04:11:22.806Z,28.00
2019-02-18T04:13:50.875Z,28.10
2019-02-18T04:16:18.826Z,30.43
2019-02-18T04:18:46.765Z,26.97
2019-02-18T04:21:14.789Z,26.50
2019-02-18T04:23:43.909Z,27.57
2019-02-18T04:26:11.981Z,27.50
2019-02-18T04:28:39.970Z,27.20
2019-02-18T04:31:08.948Z,26.97
2019-02-18T04:33:36.915Z,26.47
2019-02-18T04:36:04.888Z,28.87
2019-02-18T04:38:32.856Z,30.20
2019-02-18T04:41:00.918Z,28.60
2019-02-18T04:43:28.897Z,28.77
2019-02-18T04:45:56.848Z,28.80
2019-02-18T04:48:24.814Z,28.10
2019-02-18T04:50:54.172Z,27.40
2019-02-18T04:53:22.090Z,28.00
2019-02-18T04:55:50.141Z,30.30
2019-02-18T04:58:18.130Z,29.30
2019-02-18T05:00:46.134Z,29.10
2019-02-18T05:03:14.063Z,28.37
2019-02-18T05:05:43.606Z,28.13
2019-02-18T05:08:13.364Z,29.37
2019-02-18T05:10:41.361Z,28.63
2019-02-18T05:13:09.343Z,30.47
2019-02-18T05:15:37.324Z,29.40
2019-02-18T05:18:06.367Z,31.07
2019-02-18T05:20:36.135Z,29.40
2019-02-18T05:23:05.850Z,31.80
2019-02-18T05:25:34.824Z,27.43
2019-02-18T05:28:02.978Z,29.07
2019-02-18T05:30:32.504Z,30.63
2019-02-18T05:33:00.495Z,29.00
2019-02-18T05:35:28.441Z,29.00
2019-02-18T05:37:56.381Z,30.00
2019-02-18T05:40:24.403Z,29.30
2019-02-18T05:42:52.574Z,31.53
2019-02-18T05:45:20.533Z,32.73
2019-02-18T05:47:48.494Z,29.70
2019-02-18T05:50:16.482Z,32.00
2019-02-18T05:52:45.439Z,36.77
2019-02-18T05:55:13.370Z,31.03
2019-02-18T05:57:41.348Z,33.33
2019-02-18T06:00:10.070Z,29.80
2019-02-18T06:02:38.088Z,29.93
2019-02-18T06:05:06.535Z,31.40
2019-02-18T06:07:34.504Z,32.03
2019-02-18T06:10:02.469Z,29.50
2019-02-18T06:12:30.440Z,30.13
2019-02-18T06:14:58.423Z,31.20
2019-02-18T06:17:26.442Z,29.97
2019-02-18T06:19:54.438Z,28.70
2019-02-18T06:22:22.433Z,28.03
2019-02-18T06:24:50.406Z,29.50
2019-02-18T06:27:18.435Z,28.73
2019-02-18T06:29:49.652Z,29.73
2019-02-18T06:32:17.578Z,29.00
2019-02-18T06:34:45.639Z,34.03
2019-02-18T06:37:13.600Z,31.13
2019-02-18T06:39:42.116Z,28.27
2019-02-18T06:42:11.260Z,28.83
2019-02-18T06:45:07.405Z,29.67
2019-02-18T06:47:35.432Z,29.37
2019-02-18T06:50:03.574Z,27.90
2019-02-18T06:52:33.326Z,27.57
2019-02-18T06:55:01.559Z,29.23
2019-02-18T06:57:48.602Z,28.13
2019-02-18T07:00:28.446Z,29.63
2019-02-18T07:03:18.655Z,29.50
2019-02-18T07:05:55.428Z,29.23
2019-02-18T07:08:40.383Z,27.37
2019-02-18T07:11:21.668Z,27.20
2019-02-18T07:13:49.623Z,29.20
2019-02-18T07:16:17.756Z,27.60
2019-02-18T07:18:45.739Z,28.53
2019-02-18T07:21:13.760Z,25.93
2019-02-18T07:23:41.751Z,27.37
2019-02-18T07:26:09.721Z,26.23
2019-02-18T07:28:37.668Z,27.60
2019-02-18T07:31:05.648Z,26.70
2019-02-18T07:33:35.407Z,27.37
2019-02-18T07:36:03.432Z,27.23
2019-02-18T07:38:31.382Z,26.27
2019-02-18T07:40:59.354Z,28.27
2019-02-18T07:43:27.401Z,25.83
2019-02-18T07:45:55.288Z,24.83
2019-02-18T07:48:23.285Z,24.20
2019-02-18T07:50:52.601Z,25.43
2019-02-18T07:53:20.596Z,25.97
2019-02-18T07:55:48.546Z,23.93
2019-02-18T07:58:16.525Z,24.77
2019-02-18T08:00:45.392Z,24.03
2019-02-18T08:03:13.389Z,23.10
2019-02-18T08:05:42.119Z,24.00
2019-02-18T08:08:10.137Z,23.17
2019-02-18T08:10:39.143Z,22.57
2019-02-18T08:13:07.187Z,22.60
2019-02-18T08:15:37.596Z,22.17
2019-02-18T08:18:05.559Z,22.27
2019-02-18T08:20:33.627Z,22.90
2019-02-18T08:23:01.590Z,24.33
2019-02-18T08:25:29.607Z,22.70
2019-02-18T08:27:57.544Z,21.27
2019-02-18T08:30:25.682Z,23.60
2019-02-18T08:32:53.650Z,21.17
2019-02-18T08:35:21.688Z,22.00
2019-02-18T08:37:50.752Z,22.47
2019-02-18T08:40:22.355Z,22.20
2019-02-18T08:42:48.756Z,21.67
2019-02-18T08:45:16.710Z,20.77
2019-02-18T08:47:46.530Z,22.40
2019-02-18T08:50:14.482Z,21.40
2019-02-18T08:52:42.586Z,20.30
2019-02-18T08:55:11.345Z,22.30
2019-02-18T08:57:39.253Z,21.80
2019-02-18T09:00:09.585Z,19.60
2019-02-18T09:02:37.605Z,20.93
2019-02-18T09:05:05.739Z,22.07
2019-02-18T09:07:33.690Z,21.70
2019-02-18T09:10:01.674Z,21.43
2019-02-18T09:12:29.883Z,21.50
2019-02-18T09:15:01.435Z,21.07
2019-02-18T09:17:31.193Z,21.07
2019-02-18T09:19:59.126Z,21.03
2019-02-18T09:22:36.345Z,21.07
2019-02-18T09:25:14.377Z,21.70
2019-02-18T09:27:42.490Z,20.83
2019-02-18T09:30:12.223Z,22.17
2019-02-18T09:32:40.157Z,21.37
2019-02-18T09:35:08.572Z,21.40
2019-02-18T09:37:36.527Z,20.87
2019-02-18T09:40:04.746Z,21.33
2019-02-18T09:42:32.670Z,21.90
2019-02-18T09:45:01.740Z,20.60
2019-02-18T09:47:30.154Z,20.33
2019-02-18T09:49:58.093Z,20.60
2019-02-18T09:52:26.027Z,19.40
2019-02-18T09:54:56.034Z,20.00
2019-02-18T09:57:24.077Z,19.10
2019-02-18T09:59:52.024Z,19.63
2019-02-18T10:02:21.756Z,20.43
2019-02-18T10:04:49.756Z,19.43
2019-02-18T10:07:17.693Z,19.30
2019-02-18T10:09:45.826Z,18.97
2019-02-18T10:12:18.290Z,18.60
2019-02-18T10:14:44.619Z,19.83
2019-02-18T10:17:14.353Z,19.43
2019-02-18T10:19:43.341Z,19.90
2019-02-18T10:22:11.294Z,19.03
2019-02-18T10:24:50.222Z,19.07
2019-02-18T10:27:09.947Z,19.13
2019-02-18T10:29:37.975Z,18.17
2019-02-18T10:32:05.933Z,18.90
2019-02-18T10:34:33.847Z,19.00
2019-02-18T10:37:01.860Z,19.33
2019-02-18T10:39:29.811Z,19.17
2019-02-18T10:41:57.777Z,18.47
2019-02-18T10:44:25.732Z,19.67
2019-02-18T10:46:53.684Z,17.83
2019-02-18T10:49:22.139Z,19.40
2019-02-18T10:51:53.281Z,18.93
2019-02-18T10:54:21.343Z,18.40
2019-02-18T10:56:50.491Z,17.90
2019-02-18T10:59:18.396Z,16.67
2019-02-18T11:01:46.342Z,17.23
2019-02-18T11:04:14.392Z,17.77
2019-02-18T11:06:42.347Z,16.83
2019-02-18T11:09:11.640Z,18.10
2019-02-18T11:11:39.619Z,15.90
2019-02-18T11:14:07.736Z,14.57
2019-02-18T11:16:35.978Z,16.10
2019-02-18T11:19:03.972Z,15.03
2019-02-18T11:21:32.292Z,14.60
2019-02-18T11:24:00.395Z,16.60
2019-02-18T11:26:28.311Z,15.23
2019-02-18T11:28:56.286Z,15.40
2019-02-18T11:31:26.350Z,15.37
2019-02-18T11:33:54.310Z,15.63
2019-02-18T11:36:22.377Z,15.57
2019-02-18T11:38:50.345Z,14.83
2019-02-18T11:41:27.039Z,16.63
2019-02-18T11:43:47.988Z,14.87
2019-02-18T11:46:16.347Z,13.70
2019-02-18T11:48:44.316Z,13.80
2019-02-18T11:51:13.826Z,13.83
2019-02-18T11:53:41.767Z,15.30
2019-02-18T11:56:09.698Z,14.17
2019-02-18T11:58:37.646Z,14.70
2019-02-18T12:01:06.074Z,15.47
2019-02-18T12:03:33.983Z,15.87
2019-02-18T12:06:01.952Z,14.00
2019-02-18T12:08:29.877Z,15.83
2019-02-18T12:10:57.808Z,14.07
2019-02-18T12:13:25.874Z,12.47
2019-02-18T12:15:56.718Z,13.90
2019-02-18T12:18:24.559Z,14.27
2019-02-18T12:20:52.549Z,14.00
2019-02-18T12:23:20.572Z,13.63
2019-02-18T12:25:48.533Z,14.07
2019-02-18T12:28:18.276Z,14.07
2019-02-18T12:30:46.219Z,13.30
2019-02-18T12:33:14.589Z,12.87
2019-02-18T12:35:44.108Z,12.73
2019-02-18T12:38:12.108Z,13.00
2019-02-18T12:40:40.082Z,12.87
2019-02-18T12:43:08.044Z,12.57
2019-02-18T12:45:37.778Z,13.57
2019-02-18T12:48:05.801Z,12.33
2019-02-18T12:50:34.308Z,13.73
2019-02-18T12:53:02.315Z,14.10
2019-02-18T12:55:30.444Z,12.43
2019-02-18T12:57:59.495Z,11.37
2019-02-18T13:00:29.646Z,12.57
2019-02-18T13:02:57.730Z,12.37
2019-02-18T13:05:25.751Z,12.43
2019-02-18T13:07:53.754Z,13.60
2019-02-18T13:10:22.129Z,12.30
2019-02-18T13:12:50.049Z,12.53
2019-02-18T13:15:18.013Z,13.23
2019-02-18T13:17:47.733Z,13.03
2019-02-18T13:20:15.777Z,12.10
2019-02-18T13:22:43.793Z,12.57
2019-02-18T13:25:11.774Z,12.43
2019-02-18T13:27:40.848Z,12.90
2019-02-18T13:30:11.176Z,12.53
2019-02-18T13:32:39.128Z,12.80
2019-02-18T13:35:07.219Z,11.87
2019-02-18T13:37:35.284Z,12.20
2019-02-18T13:40:04.250Z,14.03
2019-02-18T13:42:34.002Z,13.13
2019-02-18T13:45:06.529Z,12.80
2019-02-18T13:47:35.664Z,13.70
2019-02-18T13:50:04.925Z,13.97
2019-02-18T13:52:32.885Z,13.90
2019-02-18T13:55:02.007Z,13.17
2019-02-18T13:57:30.302Z,12.63
2019-02-18T13:59:58.561Z,12.80
2019-02-18T14:02:26.550Z,14.03
2019-02-18T14:04:54.579Z,12.53
2019-02-18T14:07:22.636Z,13.13
2019-02-18T14:09:50.768Z,13.17
2019-02-18T14:12:18.793Z,14.37
2019-02-18T14:14:46.785Z,13.30
2019-02-18T14:17:15.123Z,12.53
2019-02-18T14:19:43.828Z,12.60
2019-02-18T14:22:11.862Z,13.60
2019-02-18T14:24:39.910Z,14.20
2019-02-18T14:27:08.091Z,12.67
2019-02-18T14:29:36.097Z,13.57
2019-02-18T14:32:10.355Z,12.57
2019-02-18T14:34:38.350Z,13.60
2019-02-18T14:37:06.416Z,13.13
2019-02-18T14:39:34.447Z,13.73
2019-02-18T14:42:02.397Z,15.67
2019-02-18T14:44:30.527Z,13.50
2019-02-18T14:46:58.963Z,12.87
2019-02-18T14:49:26.995Z,13.80
2019-02-18T14:51:55.027Z,13.23
2019-02-18T14:54:23.147Z,13.43
2019-02-18T14:56:51.193Z,12.27
2019-02-18T14:59:22.045Z,13.27
2019-02-18T15:01:50.087Z,14.13
2019-02-18T15:04:18.803Z,13.80
2019-02-18T15:06:46.836Z,12.30
2019-02-18T15:09:15.217Z,13.77
2019-02-18T15:11:43.262Z,14.07
2019-02-18T15:14:11.282Z,12.47
2019-02-18T15:16:39.367Z,12.47
2019-02-18T15:19:08.060Z,11.73
2019-02-18T15:21:36.114Z,11.23
2019-02-18T15:24:04.193Z,11.63
2019-02-18T15:26:32.244Z,11.47
2019-02-18T15:29:00.461Z,11.97
2019-02-18T15:31:29.558Z,12.40
2019-02-18T15:33:57.717Z,12.37
2019-02-18T15:36:26.184Z,12.97
2019-02-18T15:38:55.747Z,12.93
2019-02-18T15:41:23.833Z,14.33
2019-02-18T15:43:51.839Z,12.30
2019-02-18T15:46:20.526Z,13.20
2019-02-18T15:48:48.784Z,12.23
2019-02-18T15:51:17.198Z,13.40
2019-02-18T15:53:45.332Z,13.70
2019-02-18T15:56:13.547Z,13.00
2019-02-18T15:58:41.677Z,12.67
2019-02-18T16:01:09.792Z,13.77
2019-02-18T16:03:37.911Z,14.77
2019-02-18T16:06:05.965Z,14.23
2019-02-18T16:08:34.381Z,15.27
2019-02-18T16:11:02.498Z,14.90
2019-02-18T16:13:30.646Z,12.77
2019-02-18T16:15:58.673Z,13.70
2019-02-18T16:18:29.009Z,14.03
2019-02-18T16:20:57.351Z,15.17
2019-02-18T16:23:25.731Z,15.00
2019-02-18T16:25:56.745Z,13.23
2019-02-18T16:28:24.887Z,14.53
2019-02-18T16:30:53.001Z,15.63
2019-02-18T16:33:21.894Z,15.70
2019-02-18T16:35:50.477Z,14.37
2019-02-18T16:38:18.572Z,14.83
2019-02-18T16:40:48.971Z,16.03
2019-02-18T16:43:17.554Z,15.13
2019-02-18T16:45:46.139Z,15.77
2019-02-18T16:48:14.846Z,14.83
2019-02-18T16:50:43.152Z,14.37
2019-02-18T16:53:11.135Z,15.17
2019-02-18T16:55:39.179Z,16.07
2019-02-18T16:58:07.316Z,15.37
2019-02-18T17:00:35.663Z,15.70
2019-02-18T17:03:03.778Z,16.20
2019-02-18T17:05:32.867Z,14.77
2019-02-18T17:08:00.940Z,18.37
2019-02-18T17:10:29.355Z,17.93
2019-02-18T17:12:57.372Z,19.00
2019-02-18T17:15:25.349Z,19.60
2019-02-18T17:17:53.912Z,19.90
2019-02-18T17:20:22.288Z,18.40
2019-02-18T17:22:50.413Z,17.60
2019-02-18T17:25:18.439Z,19.10
2019-02-18T17:27:46.746Z,19.05
2019-02-18T17:30:14.850Z,17.60
2019-02-18T17:32:43.004Z,17.57
2019-02-18T17:35:12.066Z,16.93
2019-02-18T17:37:40.261Z,18.27
2019-02-18T17:40:11.620Z,17.70
2019-02-18T17:42:40.066Z,18.07
2019-02-18T17:45:09.427Z,17.67
2019-02-18T17:47:37.503Z,18.83
2019-02-18T17:50:06.146Z,17.63
2019-02-18T17:52:34.161Z,19.23
2019-02-18T17:55:02.206Z,19.43
2019-02-18T17:57:30.234Z,19.17
2019-02-18T17:59:58.788Z,17.63
2019-02-18T18:02:27.310Z,20.27
2019-02-18T18:04:56.031Z,20.03
2019-02-18T18:07:24.617Z,19.63
2019-02-18T18:09:53.011Z,17.43
2019-02-18T18:12:21.798Z,19.37
2019-02-18T18:14:50.690Z,17.03
2019-02-18T18:17:19.439Z,17.20
2019-02-18T18:19:47.752Z,18.07
2019-02-18T18:22:16.206Z,17.07
2019-02-18T18:24:44.679Z,16.27
2019-02-18T18:27:13.347Z,16.57
2019-02-18T18:29:41.735Z,17.47
2019-02-18T18:32:10.412Z,16.80
2019-02-18T18:34:39.196Z,18.33
2019-02-18T18:37:08.190Z,18.57
2019-02-18T18:39:36.769Z,20.13
2019-02-18T18:42:05.356Z,20.37
2019-02-18T18:44:33.819Z,22.43
2019-02-18T18:47:02.518Z,26.50
2019-02-18T18:49:31.129Z,26.23
2019-02-18T18:52:00.072Z,25.97
2019-02-18T18:54:30.198Z,25.85
2019-02-18T18:56:58.583Z,23.70
2019-02-18T18:59:27.909Z,21.77
2019-02-18T19:01:56.683Z,21.10
2019-02-18T19:04:26.200Z,19.30
2019-02-18T19:06:54.421Z,19.47
2019-02-18T19:09:22.530Z,17.47
2019-02-18T19:11:51.512Z,19.40
2019-02-18T19:14:22.584Z,17.60
2019-02-18T19:16:51.739Z,18.60
2019-02-18T19:19:20.655Z,18.13
2019-02-18T19:21:49.215Z,18.57
2019-02-18T19:24:23.826Z,16.20
2019-02-18T19:26:52.275Z,17.90
2019-02-18T19:29:20.612Z,18.33
2019-02-18T19:31:48.743Z,16.60
2019-02-18T19:34:16.865Z,16.40
2019-02-18T19:36:45.004Z,17.63
2019-02-18T19:39:14.729Z,15.77
2019-02-18T19:41:42.843Z,15.67
2019-02-18T19:44:11.282Z,15.37
2019-02-18T19:46:39.492Z,17.10
2019-02-18T19:49:07.545Z,18.47
2019-02-18T19:51:35.713Z,18.63
2019-02-18T19:54:04.236Z,18.10
2019-02-18T19:56:33.972Z,16.90
2019-02-18T19:59:04.759Z,17.30
2019-02-18T20:01:32.985Z,17.77
2019-02-18T20:04:01.135Z,20.33
2019-02-18T20:06:29.239Z,18.67
2019-02-18T20:08:57.365Z,17.97
2019-02-18T20:11:25.437Z,19.67
2019-02-18T20:13:58.677Z,19.63
2019-02-18T20:16:23.283Z,20.50
2019-02-18T20:18:51.401Z,20.67
2019-02-18T20:21:19.522Z,20.43
2019-02-18T20:23:47.486Z,21.33
2019-02-18T20:26:16.882Z,20.40
2019-02-18T20:28:44.921Z,20.50
2019-02-18T20:31:13.328Z,21.40
2019-02-18T20:33:41.388Z,19.83
2019-02-18T20:36:09.438Z,20.50
2019-02-18T20:38:37.454Z,18.27
2019-02-18T20:41:05.555Z,21.17
2019-02-18T20:43:33.689Z,22.00
2019-02-18T20:46:02.246Z,19.73
2019-02-18T20:48:30.352Z,20.27
2019-02-18T20:50:58.425Z,20.73
2019-02-18T20:53:26.474Z,20.83
2019-02-18T20:55:54.862Z,19.50
2019-02-18T20:58:22.989Z,19.50
2019-02-18T21:00:51.098Z,21.60
2019-02-18T21:03:20.622Z,19.90
2019-02-18T21:05:48.791Z,20.70
2019-02-18T21:08:16.866Z,18.53
2019-02-18T21:10:44.848Z,18.47
2019-02-18T21:13:12.967Z,20.43
2019-02-18T21:15:40.962Z,20.63
2019-02-18T21:18:09.082Z,18.77
2019-02-18T21:20:40.098Z,20.30
2019-02-18T21:23:08.226Z,20.37
2019-02-18T21:25:36.457Z,22.67
2019-02-18T21:28:04.550Z,21.60
2019-02-18T21:30:32.926Z,18.97
2019-02-18T21:33:00.994Z,19.77
2019-02-18T21:35:29.056Z,19.53
2019-02-18T21:37:58.638Z,19.40
2019-02-18T21:40:26.724Z,19.73
2019-02-18T21:42:54.790Z,20.23
2019-02-18T21:45:23.316Z,19.10
2019-02-18T21:47:51.309Z,18.63
2019-02-18T21:50:19.900Z,19.00
2019-02-18T21:52:48.358Z,20.53
2019-02-18T21:55:16.367Z,20.07
2019-02-18T21:57:44.476Z,20.90
2019-02-18T22:00:28.215Z,20.50
2019-02-18T22:02:56.510Z,19.17
2019-02-18T22:05:27.698Z,21.40
2019-02-18T22:07:55.756Z,19.60
2019-02-18T22:10:23.853Z,21.30
2019-02-18T22:12:51.914Z,21.60
2019-02-18T22:15:19.928Z,18.80
2019-02-18T22:17:48.007Z,20.47
2019-02-18T22:20:16.494Z,20.43
2019-02-18T22:22:50.007Z,21.10
2019-02-18T22:25:19.941Z,21.57
2019-02-18T22:27:48.959Z,20.57
2019-02-18T22:30:17.032Z,19.30
2019-02-18T22:32:45.036Z,19.23
2019-02-18T22:35:13.496Z,21.00
2019-02-18T22:37:41.563Z,21.17
2019-02-18T22:40:09.569Z,20.47
2019-02-18T22:42:37.596Z,20.43
2019-02-18T22:45:05.721Z,21.33
2019-02-18T22:47:33.702Z,20.40
2019-02-18T22:50:02.022Z,20.93
2019-02-18T22:52:30.515Z,21.03
2019-02-18T22:54:58.526Z,19.33
2019-02-18T22:57:26.626Z,20.13
2019-02-18T22:59:54.683Z,19.90
2019-02-18T23:02:22.673Z,19.67
2019-02-18T23:04:50.636Z,19.70
2019-02-18T23:07:18.650Z,19.60
2019-02-18T23:09:46.670Z,20.63
2019-02-18T23:12:14.755Z,20.50
2019-02-18T23:14:50.119Z,20.50
2019-02-18T23:17:12.460Z,20.03
2019-02-18T23:19:40.494Z,21.30
2019-02-18T23:22:09.148Z,21.07
2019-02-18T23:24:37.207Z,20.47
2019-02-18T23:27:05.517Z,20.80
2019-02-18T23:29:33.633Z,20.00
2019-02-18T23:32:01.723Z,19.50
2019-02-18T23:34:29.738Z,20.43
2019-02-18T23:36:57.775Z,20.60
2019-02-18T23:39:26.766Z,19.80
2019-02-18T23:41:54.897Z,20.93
2019-02-18T23:44:22.992Z,20.70
2019-02-18T23:46:51.050Z,20.57
2019-02-18T23:49:18.996Z,20.27
2019-02-18T23:51:47.042Z,19.37
2019-02-18T23:54:15.035Z,20.93
2019-02-18T23:56:43.059Z,20.50
2019-02-18T23:59:11.030Z,21.93
